sensor_id;sensor_type;location;lat;lon;timestamp;pressure;altitude;pressure_sealevel;temperature;humidity
49979;BME280;35869;50.990;6.962;2023-09-30T00:01:28;102196.25;;;14.71;100.00
49979;BME280;35869;50.990;6.962;2023-09-30T00:06:28;102196.44;;;14.66;100.00
49979;BME280;35869;50.990;6.962;2023-09-30T00:11:29;102205.41;;;14.59;100.00
49979;BME280;35869;50.990;6.962;2023-09-30T00:16:29;102219.47;;;14.56;100.00
49979;BME280;35869;50.990;6.962;2023-09-30T00:21:29;102234.53;;;14.50;100.00
49979;BME280;35869;50.990;6.962;2023-09-30T00:26:30;102221.66;;;14.44;100.00
49979;BME280;35869;50.990;6.962;2023-09-30T00:31:31;102228.88;;;14.37;100.00
49979;BME280;35869;50.990;6.962;2023-09-30T00:36:31;102225.56;;;14.32;100.00
49979;BME280;35869;50.990;6.962;2023-09-30T00:41:31;102223.22;;;14.24;100.00
49979;BME280;35869;50.990;6.962;2023-09-30T00:46:32;102225.25;;;14.16;100.00
49979;BME280;35869;50.990;6.962;2023-09-30T00:51:33;102227.06;;;14.14;100.00
49979;BME280;35869;50.990;6.962;2023-09-30T00:56:33;102246.28;;;14.13;100.00
49979;BME280;35869;50.990;6.962;2023-09-30T01:01:34;102245.25;;;14.17;100.00
49979;BME280;35869;50.990;6.962;2023-09-30T01:06:34;102240.84;;;14.19;100.00
49979;BME280;35869;50.990;6.962;2023-09-30T01:11:34;102238.31;;;14.16;100.00
49979;BME280;35869;50.990;6.962;2023-09-30T01:16:35;102247.88;;;14.17;100.00
49979;BME280;35869;50.990;6.962;2023-09-30T01:21:42;102254.00;;;14.16;100.00
49979;BME280;35869;50.990;6.962;2023-09-30T01:26:48;102240.31;;;14.09;100.00
49979;BME280;35869;50.990;6.962;2023-09-30T01:31:51;102229.09;;;14.06;100.00
49979;BME280;35869;50.990;6.962;2023-09-30T01:36:54;102239.53;;;14.06;100.00
49979;BME280;35869;50.990;6.962;2023-09-30T01:42:04;102250.97;;;14.03;100.00
49979;BME280;35869;50.990;6.962;2023-09-30T01:47:04;102262.38;;;14.01;100.00
49979;BME280;35869;50.990;6.962;2023-09-30T01:52:09;102232.06;;;13.95;100.00
49979;BME280;35869;50.990;6.962;2023-09-30T01:57:12;102240.81;;;13.94;100.00
49979;BME280;35869;50.990;6.962;2023-09-30T02:02:12;102262.50;;;13.98;100.00
49979;BME280;35869;50.990;6.962;2023-09-30T02:07:12;102266.22;;;13.91;100.00
49979;BME280;35869;50.990;6.962;2023-09-30T02:12:16;102262.78;;;13.88;100.00
49979;BME280;35869;50.990;6.962;2023-09-30T02:17:18;102268.00;;;13.88;100.00
49979;BME280;35869;50.990;6.962;2023-09-30T02:22:19;102257.75;;;13.82;100.00
49979;BME280;35869;50.990;6.962;2023-09-30T02:27:19;102259.59;;;13.80;100.00
49979;BME280;35869;50.990;6.962;2023-09-30T02:32:19;102259.78;;;13.74;100.00
49979;BME280;35869;50.990;6.962;2023-09-30T02:37:19;102265.88;;;13.75;100.00
49979;BME280;35869;50.990;6.962;2023-09-30T02:42:19;102261.75;;;13.68;100.00
49979;BME280;35869;50.990;6.962;2023-09-30T02:47:19;102264.56;;;13.62;100.00
49979;BME280;35869;50.990;6.962;2023-09-30T02:52:20;102246.31;;;13.60;100.00
49979;BME280;35869;50.990;6.962;2023-09-30T02:57:20;102258.63;;;13.56;100.00
49979;BME280;35869;50.990;6.962;2023-09-30T03:02:20;102272.75;;;13.51;100.00
49979;BME280;35869;50.990;6.962;2023-09-30T03:07:20;102269.34;;;13.49;100.00
49979;BME280;35869;50.990;6.962;2023-09-30T03:12:21;102268.50;;;13.47;100.00
49979;BME280;35869;50.990;6.962;2023-09-30T03:17:21;102279.06;;;13.44;100.00
49979;BME280;35869;50.990;6.962;2023-09-30T03:22:21;102258.19;;;13.42;100.00
49979;BME280;35869;50.990;6.962;2023-09-30T03:27:21;102271.31;;;13.41;100.00
49979;BME280;35869;50.990;6.962;2023-09-30T03:32:21;102285.28;;;13.40;100.00
49979;BME280;35869;50.990;6.962;2023-09-30T03:37:22;102276.53;;;13.41;100.00
49979;BME280;35869;50.990;6.962;2023-09-30T03:42:22;102261.91;;;13.35;100.00
49979;BME280;35869;50.990;6.962;2023-09-30T03:47:22;102274.22;;;13.31;100.00
49979;BME280;35869;50.990;6.962;2023-09-30T03:52:22;102262.22;;;13.26;100.00
49979;BME280;35869;50.990;6.962;2023-09-30T03:57:23;102263.16;;;13.23;100.00
49979;BME280;35869;50.990;6.962;2023-09-30T04:02:23;102257.97;;;13.22;100.00
49979;BME280;35869;50.990;6.962;2023-09-30T04:07:23;102247.63;;;13.17;100.00
49979;BME280;35869;50.990;6.962;2023-09-30T04:12:23;102255.59;;;13.14;100.00
49979;BME280;35869;50.990;6.962;2023-09-30T04:17:24;102254.72;;;13.14;100.00
49979;BME280;35869;50.990;6.962;2023-09-30T04:22:25;102259.16;;;13.10;100.00
49979;BME280;35869;50.990;6.962;2023-09-30T04:27:25;102251.34;;;13.10;100.00
49979;BME280;35869;50.990;6.962;2023-09-30T04:32:25;102249.81;;;13.03;100.00
49979;BME280;35869;50.990;6.962;2023-09-30T04:37:26;102248.16;;;13.00;100.00
49979;BME280;35869;50.990;6.962;2023-09-30T04:42:26;102260.34;;;13.00;100.00
49979;BME280;35869;50.990;6.962;2023-09-30T04:47:26;102278.66;;;12.98;100.00
49979;BME280;35869;50.990;6.962;2023-09-30T04:52:26;102295.31;;;12.94;100.00
49979;BME280;35869;50.990;6.962;2023-09-30T04:57:26;102291.97;;;12.89;100.00
49979;BME280;35869;50.990;6.962;2023-09-30T05:02:27;102295.44;;;12.90;100.00
49979;BME280;35869;50.990;6.962;2023-09-30T05:07:27;102286.06;;;12.84;100.00
49979;BME280;35869;50.990;6.962;2023-09-30T05:12:27;102287.81;;;12.82;100.00
49979;BME280;35869;50.990;6.962;2023-09-30T05:17:28;102290.56;;;12.77;100.00
49979;BME280;35869;50.990;6.962;2023-09-30T05:22:28;102292.38;;;12.75;100.00
49979;BME280;35869;50.990;6.962;2023-09-30T05:27:29;102292.47;;;12.72;100.00
49979;BME280;35869;50.990;6.962;2023-09-30T05:32:29;102308.19;;;12.69;100.00
49979;BME280;35869;50.990;6.962;2023-09-30T05:37:29;102316.06;;;12.68;100.00
49979;BME280;35869;50.990;6.962;2023-09-30T05:42:29;102325.66;;;12.67;100.00
49979;BME280;35869;50.990;6.962;2023-09-30T05:47:29;102318.69;;;12.66;100.00
49979;BME280;35869;50.990;6.962;2023-09-30T05:52:30;102319.59;;;12.67;100.00
49979;BME280;35869;50.990;6.962;2023-09-30T05:57:30;102317.00;;;12.65;100.00
49979;BME280;35869;50.990;6.962;2023-09-30T06:02:30;102310.97;;;12.63;100.00
49979;BME280;35869;50.990;6.962;2023-09-30T06:07:30;102314.56;;;12.59;100.00
49979;BME280;35869;50.990;6.962;2023-09-30T06:12:30;102330.94;;;12.64;100.00
49979;BME280;35869;50.990;6.962;2023-09-30T06:17:32;102325.59;;;12.69;100.00
49979;BME280;35869;50.990;6.962;2023-09-30T06:22:32;102325.66;;;12.67;100.00
49979;BME280;35869;50.990;6.962;2023-09-30T06:27:32;102324.75;;;12.68;100.00
49979;BME280;35869;50.990;6.962;2023-09-30T06:32:32;102325.56;;;12.70;100.00
49979;BME280;35869;50.990;6.962;2023-09-30T06:37:33;102334.22;;;12.71;100.00
49979;BME280;35869;50.990;6.962;2023-09-30T06:42:34;102323.84;;;12.69;100.00
49979;BME280;35869;50.990;6.962;2023-09-30T06:47:35;102348.06;;;12.74;100.00
49979;BME280;35869;50.990;6.962;2023-09-30T06:52:38;102345.50;;;12.73;100.00
49979;BME280;35869;50.990;6.962;2023-09-30T06:57:39;102351.44;;;12.78;100.00
49979;BME280;35869;50.990;6.962;2023-09-30T07:02:41;102364.44;;;12.79;100.00
49979;BME280;35869;50.990;6.962;2023-09-30T07:07:41;102357.34;;;12.85;100.00
49979;BME280;35869;50.990;6.962;2023-09-30T07:12:41;102347.72;;;12.87;100.00
49979;BME280;35869;50.990;6.962;2023-09-30T07:17:41;102362.47;;;12.88;100.00
49979;BME280;35869;50.990;6.962;2023-09-30T07:22:42;102378.91;;;12.91;100.00
49979;BME280;35869;50.990;6.962;2023-09-30T07:27:44;102367.56;;;12.92;100.00
49979;BME280;35869;50.990;6.962;2023-09-30T07:32:44;102371.78;;;12.98;100.00
49979;BME280;35869;50.990;6.962;2023-09-30T07:37:45;102390.78;;;13.03;100.00
49979;BME280;35869;50.990;6.962;2023-09-30T07:42:45;102405.44;;;13.07;100.00
49979;BME280;35869;50.990;6.962;2023-09-30T07:47:45;102409.72;;;13.10;100.00
49979;BME280;35869;50.990;6.962;2023-09-30T07:52:45;102404.38;;;13.14;100.00
49979;BME280;35869;50.990;6.962;2023-09-30T07:57:45;102402.50;;;13.19;100.00
49979;BME280;35869;50.990;6.962;2023-09-30T08:02:46;102394.53;;;13.25;100.00
49979;BME280;35869;50.990;6.962;2023-09-30T08:07:46;102390.97;;;13.28;100.00
49979;BME280;35869;50.990;6.962;2023-09-30T08:12:46;102414.22;;;13.36;100.00
49979;BME280;35869;50.990;6.962;2023-09-30T08:17:46;102431.53;;;13.40;100.00
49979;BME280;35869;50.990;6.962;2023-09-30T08:22:46;102435.72;;;13.45;100.00
49979;BME280;35869;50.990;6.962;2023-09-30T08:27:57;102435.59;;;13.50;100.00
49979;BME280;35869;50.990;6.962;2023-09-30T08:33:17;102442.16;;;13.63;100.00
49979;BME280;35869;50.990;6.962;2023-09-30T08:38:18;102432.69;;;13.59;100.00
49979;BME280;35869;50.990;6.962;2023-09-30T08:43:21;102435.84;;;13.70;100.00
49979;BME280;35869;50.990;6.962;2023-09-30T08:48:26;102440.16;;;13.73;100.00
49979;BME280;35869;50.990;6.962;2023-09-30T08:53:29;102439.97;;;13.79;100.00
49979;BME280;35869;50.990;6.962;2023-09-30T08:58:30;102433.47;;;13.92;100.00
49979;BME280;35869;50.990;6.962;2023-09-30T09:03:30;102436.34;;;14.11;100.00
49979;BME280;35869;50.990;6.962;2023-09-30T09:08:31;102412.88;;;14.09;100.00
49979;BME280;35869;50.990;6.962;2023-09-30T09:13:50;102403.50;;;14.29;100.00
49979;BME280;35869;50.990;6.962;2023-09-30T09:18:51;102400.25;;;14.22;100.00
49979;BME280;35869;50.990;6.962;2023-09-30T09:23:51;102407.25;;;14.22;100.00
49979;BME280;35869;50.990;6.962;2023-09-30T09:28:58;102408.16;;;14.47;100.00
49979;BME280;35869;50.990;6.962;2023-09-30T09:33:58;102405.94;;;14.61;100.00
49979;BME280;35869;50.990;6.962;2023-09-30T09:38:59;102392.03;;;14.61;100.00
49979;BME280;35869;50.990;6.962;2023-09-30T09:43:59;102394.72;;;14.83;100.00
49979;BME280;35869;50.990;6.962;2023-09-30T09:48:59;102402.97;;;14.97;100.00
49979;BME280;35869;50.990;6.962;2023-09-30T09:54:01;102399.56;;;14.95;100.00
49979;BME280;35869;50.990;6.962;2023-09-30T09:59:04;102407.91;;;15.05;100.00
49979;BME280;35869;50.990;6.962;2023-09-30T10:04:05;102416.78;;;15.24;100.00
49979;BME280;35869;50.990;6.962;2023-09-30T10:09:07;102414.53;;;15.38;100.00
49979;BME280;35869;50.990;6.962;2023-09-30T10:14:29;102412.69;;;15.40;100.00
49979;BME280;35869;50.990;6.962;2023-09-30T10:19:30;102416.63;;;15.52;100.00
49979;BME280;35869;50.990;6.962;2023-09-30T10:24:30;102425.97;;;15.83;100.00
49979;BME280;35869;50.990;6.962;2023-09-30T10:29:40;102425.72;;;15.89;100.00
49979;BME280;35869;50.990;6.962;2023-09-30T10:34:56;102422.06;;;15.93;100.00
49979;BME280;35869;50.990;6.962;2023-09-30T10:39:58;102403.81;;;16.12;100.00
49979;BME280;35869;50.990;6.962;2023-09-30T10:44:58;102408.19;;;16.33;100.00
49979;BME280;35869;50.990;6.962;2023-09-30T10:49:58;102407.16;;;16.37;100.00
49979;BME280;35869;50.990;6.962;2023-09-30T10:55:03;102418.84;;;16.50;100.00
49979;BME280;35869;50.990;6.962;2023-09-30T11:00:10;102419.25;;;16.62;100.00
49979;BME280;35869;50.990;6.962;2023-09-30T11:05:11;102422.66;;;16.64;100.00
49979;BME280;35869;50.990;6.962;2023-09-30T11:10:16;102412.31;;;16.61;100.00
49979;BME280;35869;50.990;6.962;2023-09-30T11:15:16;102397.50;;;16.58;100.00
49979;BME280;35869;50.990;6.962;2023-09-30T11:20:17;102389.75;;;16.77;100.00
49979;BME280;35869;50.990;6.962;2023-09-30T11:25:18;102374.34;;;16.88;100.00
49979;BME280;35869;50.990;6.962;2023-09-30T11:30:18;102378.28;;;16.98;100.00
49979;BME280;35869;50.990;6.962;2023-09-30T11:35:22;102380.03;;;17.18;96.25
49979;BME280;35869;50.990;6.962;2023-09-30T11:40:23;102371.06;;;17.22;98.24
49979;BME280;35869;50.990;6.962;2023-09-30T11:45:23;102372.91;;;17.39;100.00
49979;BME280;35869;50.990;6.962;2023-09-30T11:50:23;102370.00;;;17.08;100.00
49979;BME280;35869;50.990;6.962;2023-09-30T11:55:24;102359.94;;;17.36;97.03
49979;BME280;35869;50.990;6.962;2023-09-30T12:00:24;102352.41;;;17.47;100.00
49979;BME280;35869;50.990;6.962;2023-09-30T12:05:24;102347.56;;;17.38;100.00
49979;BME280;35869;50.990;6.962;2023-09-30T12:10:24;102346.78;;;17.91;90.28
49979;BME280;35869;50.990;6.962;2023-09-30T12:15:25;102334.91;;;18.01;93.78
49979;BME280;35869;50.990;6.962;2023-09-30T12:20:25;102321.88;;;18.16;94.64
49979;BME280;35869;50.990;6.962;2023-09-30T12:25:25;102310.91;;;17.90;96.26
49979;BME280;35869;50.990;6.962;2023-09-30T12:30:25;102287.84;;;18.30;91.55
49979;BME280;35869;50.990;6.962;2023-09-30T12:35:26;102284.75;;;18.55;84.25
49979;BME280;35869;50.990;6.962;2023-09-30T12:40:26;102284.69;;;18.56;85.35
49979;BME280;35869;50.990;6.962;2023-09-30T12:45:26;102303.63;;;18.63;82.53
49979;BME280;35869;50.990;6.962;2023-09-30T12:50:26;102310.69;;;18.62;86.88
49979;BME280;35869;50.990;6.962;2023-09-30T12:55:35;102307.75;;;18.69;80.89
49979;BME280;35869;50.990;6.962;2023-09-30T13:00:36;102300.78;;;18.68;88.42
49979;BME280;35869;50.990;6.962;2023-09-30T13:05:36;102314.66;;;18.71;86.23
49979;BME280;35869;50.990;6.962;2023-09-30T13:10:40;102308.53;;;18.71;84.85
49979;BME280;35869;50.990;6.962;2023-09-30T13:15:40;102291.16;;;18.67;89.85
49979;BME280;35869;50.990;6.962;2023-09-30T13:20:41;102296.91;;;18.57;94.20
49979;BME280;35869;50.990;6.962;2023-09-30T13:25:41;102302.63;;;18.83;84.10
49979;BME280;35869;50.990;6.962;2023-09-30T13:30:41;102303.47;;;18.83;81.32
49979;BME280;35869;50.990;6.962;2023-09-30T13:35:45;102295.47;;;18.85;83.96
49979;BME280;35869;50.990;6.962;2023-09-30T13:40:45;102293.78;;;18.84;89.39
49979;BME280;35869;50.990;6.962;2023-09-30T13:45:45;102269.88;;;18.87;92.37
49979;BME280;35869;50.990;6.962;2023-09-30T13:50:46;102259.78;;;18.95;83.19
49979;BME280;35869;50.990;6.962;2023-09-30T13:55:46;102251.81;;;18.97;87.60
49979;BME280;35869;50.990;6.962;2023-09-30T14:00:47;102256.03;;;18.99;87.42
49979;BME280;35869;50.990;6.962;2023-09-30T14:05:47;102247.28;;;18.99;90.41
49979;BME280;35869;50.990;6.962;2023-09-30T14:10:47;102248.13;;;18.99;87.68
49979;BME280;35869;50.990;6.962;2023-09-30T14:15:48;102241.09;;;19.00;88.85
49979;BME280;35869;50.990;6.962;2023-09-30T14:20:48;102242.72;;;19.02;91.78
49979;BME280;35869;50.990;6.962;2023-09-30T14:30:51;102228.59;;;19.03;88.95
49979;BME280;35869;50.990;6.962;2023-09-30T14:36:15;102225.94;;;19.03;92.41
49979;BME280;35869;50.990;6.962;2023-09-30T14:41:28;102224.25;;;19.02;91.16
49979;BME280;35869;50.990;6.962;2023-09-30T14:46:43;102234.28;;;18.96;100.00
49979;BME280;35869;50.990;6.962;2023-09-30T14:52:10;102231.81;;;19.08;89.50
49979;BME280;35869;50.990;6.962;2023-09-30T14:57:24;102225.78;;;19.06;92.74
49979;BME280;35869;50.990;6.962;2023-09-30T15:02:25;102227.31;;;19.10;86.51
49979;BME280;35869;50.990;6.962;2023-09-30T15:13:36;102204.88;;;19.03;99.32
49979;BME280;35869;50.990;6.962;2023-09-30T15:18:56;102188.22;;;19.03;92.95
49979;BME280;35869;50.990;6.962;2023-09-30T15:23:59;102186.69;;;18.99;100.00
49979;BME280;35869;50.990;6.962;2023-09-30T15:29:02;102183.28;;;18.97;100.00
49979;BME280;35869;50.990;6.962;2023-09-30T15:34:02;102189.94;;;18.88;100.00
49979;BME280;35869;50.990;6.962;2023-09-30T15:44:38;102194.34;;;18.72;100.00
49979;BME280;35869;50.990;6.962;2023-09-30T15:49:59;102197.66;;;18.75;99.72
49979;BME280;35869;50.990;6.962;2023-09-30T15:55:02;102194.81;;;18.62;100.00
49979;BME280;35869;50.990;6.962;2023-09-30T16:00:05;102200.41;;;18.56;100.00
49979;BME280;35869;50.990;6.962;2023-09-30T16:10:44;102202.94;;;18.42;100.00
49979;BME280;35869;50.990;6.962;2023-09-30T16:15:44;102207.75;;;18.34;100.00
49979;BME280;35869;50.990;6.962;2023-09-30T16:20:50;102200.38;;;18.25;100.00
49979;BME280;35869;50.990;6.962;2023-09-30T16:25:51;102206.88;;;18.18;100.00
49979;BME280;35869;50.990;6.962;2023-09-30T16:30:51;102199.47;;;18.08;100.00
49979;BME280;35869;50.990;6.962;2023-09-30T16:35:54;102188.50;;;18.00;100.00
49979;BME280;35869;50.990;6.962;2023-09-30T16:41:03;102187.09;;;17.93;100.00
49979;BME280;35869;50.990;6.962;2023-09-30T16:46:12;102198.03;;;17.85;100.00
49979;BME280;35869;50.990;6.962;2023-09-30T16:51:18;102196.63;;;17.78;100.00
49979;BME280;35869;50.990;6.962;2023-09-30T16:56:23;102199.63;;;17.71;100.00
49979;BME280;35869;50.990;6.962;2023-09-30T17:01:47;102205.34;;;17.62;100.00
49979;BME280;35869;50.990;6.962;2023-09-30T17:18:55;102213.81;;;17.32;100.00
49979;BME280;35869;50.990;6.962;2023-09-30T18:02:31;102232.22;;;16.57;100.00
49979;BME280;35869;50.990;6.962;2023-09-30T18:07:31;102234.41;;;16.47;100.00
49979;BME280;35869;50.990;6.962;2023-09-30T18:12:31;102236.53;;;16.39;100.00
49979;BME280;35869;50.990;6.962;2023-09-30T18:17:31;102235.09;;;16.32;100.00
49979;BME280;35869;50.990;6.962;2023-09-30T18:22:32;102244.19;;;16.23;100.00
49979;BME280;35869;50.990;6.962;2023-09-30T18:27:32;102234.97;;;16.14;100.00
49979;BME280;35869;50.990;6.962;2023-09-30T18:32:33;102233.47;;;16.09;100.00
49979;BME280;35869;50.990;6.962;2023-09-30T18:37:34;102228.41;;;16.04;100.00
49979;BME280;35869;50.990;6.962;2023-09-30T18:42:34;102231.22;;;15.99;100.00
49979;BME280;35869;50.990;6.962;2023-09-30T18:47:34;102216.59;;;15.94;100.00
49979;BME280;35869;50.990;6.962;2023-09-30T18:52:34;102215.31;;;15.84;100.00
49979;BME280;35869;50.990;6.962;2023-09-30T18:57:35;102228.72;;;15.76;100.00
49979;BME280;35869;50.990;6.962;2023-09-30T19:02:35;102228.06;;;15.71;100.00
49979;BME280;35869;50.990;6.962;2023-09-30T19:07:35;102235.41;;;15.63;100.00
49979;BME280;35869;50.990;6.962;2023-09-30T19:12:35;102224.22;;;15.58;100.00
49979;BME280;35869;50.990;6.962;2023-09-30T19:17:35;102220.16;;;15.51;100.00
49979;BME280;35869;50.990;6.962;2023-09-30T19:22:36;102233.44;;;15.46;100.00
49979;BME280;35869;50.990;6.962;2023-09-30T19:27:36;102237.28;;;15.37;100.00
49979;BME280;35869;50.990;6.962;2023-09-30T19:32:37;102216.63;;;15.30;100.00
49979;BME280;35869;50.990;6.962;2023-09-30T19:37:37;102224.63;;;15.27;100.00
49979;BME280;35869;50.990;6.962;2023-09-30T19:42:38;102216.16;;;15.20;100.00
49979;BME280;35869;50.990;6.962;2023-09-30T19:47:38;102213.81;;;15.12;100.00
49979;BME280;35869;50.990;6.962;2023-09-30T19:52:38;102220.03;;;15.10;100.00
49979;BME280;35869;50.990;6.962;2023-09-30T19:57:38;102221.06;;;15.06;100.00
49979;BME280;35869;50.990;6.962;2023-09-30T20:02:39;102231.69;;;15.03;100.00
49979;BME280;35869;50.990;6.962;2023-09-30T20:07:39;102235.31;;;14.99;100.00
49979;BME280;35869;50.990;6.962;2023-09-30T20:12:39;102227.59;;;14.96;100.00
49979;BME280;35869;50.990;6.962;2023-09-30T20:17:40;102220.63;;;14.94;100.00
49979;BME280;35869;50.990;6.962;2023-09-30T20:22:40;102213.94;;;14.87;100.00
49979;BME280;35869;50.990;6.962;2023-09-30T20:27:40;102212.41;;;14.82;100.00
49979;BME280;35869;50.990;6.962;2023-09-30T20:32:40;102207.16;;;14.82;100.00
49979;BME280;35869;50.990;6.962;2023-09-30T20:37:40;102202.00;;;14.80;100.00
49979;BME280;35869;50.990;6.962;2023-09-30T20:42:41;102199.47;;;14.77;100.00
49979;BME280;35869;50.990;6.962;2023-09-30T20:47:41;102207.34;;;14.77;100.00
49979;BME280;35869;50.990;6.962;2023-09-30T20:52:41;102210.16;;;14.73;100.00
49979;BME280;35869;50.990;6.962;2023-09-30T20:57:41;102204.94;;;14.71;100.00
49979;BME280;35869;50.990;6.962;2023-09-30T21:02:41;102214.88;;;14.63;100.00
49979;BME280;35869;50.990;6.962;2023-09-30T21:07:42;102219.25;;;14.62;100.00
49979;BME280;35869;50.990;6.962;2023-09-30T21:12:42;102215.00;;;14.60;100.00
49979;BME280;35869;50.990;6.962;2023-09-30T21:17:42;102220.41;;;14.54;100.00
49979;BME280;35869;50.990;6.962;2023-09-30T21:22:42;102221.53;;;14.48;100.00
49979;BME280;35869;50.990;6.962;2023-09-30T21:27:42;102213.91;;;14.40;100.00
49979;BME280;35869;50.990;6.962;2023-09-30T21:32:43;102222.78;;;14.36;100.00
49979;BME280;35869;50.990;6.962;2023-09-30T21:37:43;102235.13;;;14.33;100.00
49979;BME280;35869;50.990;6.962;2023-09-30T21:42:43;102237.78;;;14.31;100.00
49979;BME280;35869;50.990;6.962;2023-09-30T21:47:43;102223.19;;;14.26;100.00
49979;BME280;35869;50.990;6.962;2023-09-30T21:52:44;102225.81;;;14.24;100.00
49979;BME280;35869;50.990;6.962;2023-09-30T21:57:44;102231.19;;;14.21;100.00
49979;BME280;35869;50.990;6.962;2023-09-30T22:02:44;102231.34;;;14.17;100.00
49979;BME280;35869;50.990;6.962;2023-09-30T22:07:44;102234.06;;;14.13;100.00
49979;BME280;35869;50.990;6.962;2023-09-30T22:12:45;102229.78;;;14.11;100.00
49979;BME280;35869;50.990;6.962;2023-09-30T22:17:45;102229.91;;;14.08;100.00
49979;BME280;35869;50.990;6.962;2023-09-30T22:22:45;102216.06;;;14.04;100.00
49979;BME280;35869;50.990;6.962;2023-09-30T22:27:45;102223.13;;;14.02;100.00
49979;BME280;35869;50.990;6.962;2023-09-30T22:32:45;102217.25;;;13.96;100.00
49979;BME280;35869;50.990;6.962;2023-09-30T22:37:46;102224.34;;;13.92;100.00
49979;BME280;35869;50.990;6.962;2023-09-30T22:42:46;102223.59;;;13.88;100.00
49979;BME280;35869;50.990;6.962;2023-09-30T22:47:48;102228.94;;;13.85;100.00
49979;BME280;35869;50.990;6.962;2023-09-30T22:52:49;102220.38;;;13.80;100.00
49979;BME280;35869;50.990;6.962;2023-09-30T22:57:51;102217.78;;;13.80;100.00
49979;BME280;35869;50.990;6.962;2023-09-30T23:02:51;102212.75;;;13.74;100.00
49979;BME280;35869;50.990;6.962;2023-09-30T23:07:51;102206.56;;;13.77;100.00
49979;BME280;35869;50.990;6.962;2023-09-30T23:12:51;102202.41;;;13.71;100.00
49979;BME280;35869;50.990;6.962;2023-09-30T23:17:52;102205.06;;;13.70;100.00
49979;BME280;35869;50.990;6.962;2023-09-30T23:22:53;102204.34;;;13.66;100.00
49979;BME280;35869;50.990;6.962;2023-09-30T23:27:54;102197.38;;;13.65;100.00
49979;BME280;35869;50.990;6.962;2023-09-30T23:32:56;102196.66;;;13.60;100.00
49979;BME280;35869;50.990;6.962;2023-09-30T23:37:56;102201.09;;;13.58;100.00
49979;BME280;35869;50.990;6.962;2023-09-30T23:42:56;102198.50;;;13.58;100.00
49979;BME280;35869;50.990;6.962;2023-09-30T23:47:57;102199.50;;;13.54;100.00
49979;BME280;35869;50.990;6.962;2023-09-30T23:52:57;102206.53;;;13.52;100.00
49979;BME280;35869;50.990;6.962;2023-09-30T23:57:57;102194.47;;;13.48;100.00
